Address 0xf0f01e9464e740c08d55295c7090947f4f64ef6c 3

Txn Hash Method
Block
From
To
Value [Txn Fee]
0x8424dad022ee394d96f299d63119fe24000eece69f75ee2a856d484d0e5efae50x6549920d139285672022-09-25 12:04:231 day 18 hrs ago0xf0f01e9464e740c08d55295c7090947f4f64ef6cOUT0x2e1d0c56c6913fd6135f887080f7a14123a142a80 AVAX0.021651331728 32.493943184
0x1298e14fa1c2597f7cf5bde7ae4c96b1af71c7bfd7ac5877adeec9841f5352580xbef1e500139285532022-09-25 12:03:551 day 18 hrs ago0xf0f01e9464e740c08d55295c7090947f4f64ef6cOUT0x2e1d0c56c6913fd6135f887080f7a14123a142a80 AVAX0.008968229953 31.540514713
0xa9c7b0c9f4ee239d00dbb0b8437fb4a842991d1c654978bee39547da8539a9acHarvest139285372022-09-25 12:03:241 day 18 hrs ago0xf0f01e9464e740c08d55295c7090947f4f64ef6cOUT0x951accccfdf619d3cd8cfe0e4823d8e80354eb410 AVAX0.002715480641 33.146743179
0x3d8697121d16a53305f01fb10b397829eaa55e7a9d085bf5ae41fb0ff97f13d50xab07211e139285272022-09-25 12:03:031 day 18 hrs ago0xf0f01e9464e740c08d55295c7090947f4f64ef6cOUT0x2e1d0c56c6913fd6135f887080f7a14123a142a80 AVAX0.007081288303 31.347698281
0xa1f38148012076582299ce7d658db55e90044352da4c4c1a7d7a0b71c703cfd40x4ea4c6b3139285132022-09-25 12:02:351 day 18 hrs ago0xf0f01e9464e740c08d55295c7090947f4f64ef6cOUT0x2e1d0c56c6913fd6135f887080f7a14123a142a80 AVAX0.007349162924 32.667156764
0xd15ef05bc010506e9db5ed5186f6cbabea3e77b359a22d947c8d19eb9f47ae66Claim Reward139284842022-09-25 12:01:381 day 18 hrs ago0xf0f01e9464e740c08d55295c7090947f4f64ef6cOUT0x41102fb90121896e52868c0882dcbc74f9ca76060 AVAX0.002862868909 32.147200156
0x2f2c7a59ee6c8f70d875cde64a4f63a52510c8e05e1bef4ed8706960df3c6834Transfer139063572022-09-25 0:54:282 days 6 hrs ago0x6a5744b5f17e9aed653bcad9fe6e353648231872 IN 0xf0f01e9464e740c08d55295c7090947f4f64ef6c0.1 AVAX0.002055297554 97.871312098
0xdc1fa75fe466472071356ea79e28a2e691533d1de7b241157093402ec45a2df00x6549920d138790992022-09-24 9:36:112 days 21 hrs ago0xf0f01e9464e740c08d55295c7090947f4f64ef6cOUT0x2e1d0c56c6913fd6135f887080f7a14123a142a80 AVAX0.0183242125 27.5
0x1c70054f804747534355054762be76ec354628c8ee14d2337e281f839681f26cApprove138790922022-09-24 9:35:572 days 21 hrs ago0xf0f01e9464e740c08d55295c7090947f4f64ef6cOUT0x128e174b7206a0beb599806d27c355fab1c9af8b0 AVAX0.00129309821 27.91
0xb78c22e267d741b2ca64a4148da86317424647e063e56b7b46ec7c3a46e8cc32Mint138790822022-09-24 9:35:372 days 21 hrs ago0xf0f01e9464e740c08d55295c7090947f4f64ef6cOUT0x128e174b7206a0beb599806d27c355fab1c9af8b0 AVAX0.001613645 27.5
0x4b332e60ec2cf8d6504f461b08e08c749682aab095744b0c5d9f94edba604739Harvest138790682022-09-24 9:35:082 days 21 hrs ago0xf0f01e9464e740c08d55295c7090947f4f64ef6cOUT0x951accccfdf619d3cd8cfe0e4823d8e80354eb410 AVAX0.0022495 27.5
0x7bcd9e1c80548cd4f1643963c061bf930a71dd5cf364142ed4edf0c45ad85ce50x4ea4c6b3138790532022-09-24 9:34:382 days 21 hrs ago0xf0f01e9464e740c08d55295c7090947f4f64ef6cOUT0x2e1d0c56c6913fd6135f887080f7a14123a142a80 AVAX0.0071538225 27.5
0xd9c6f039356b21ad6e5f51bfe2dff59001c52abd0539387b02d0a4044196375f0x8a6655d6138790432022-09-24 9:34:182 days 21 hrs ago0xf0f01e9464e740c08d55295c7090947f4f64ef6cOUT0x41102fb90121896e52868c0882dcbc74f9ca76060 AVAX0.003361215 27.5
0x39988aa289c1e945240b4c20d483144181e86fcaa8a00d256cf851f5a36987f9Claim138721052022-09-24 5:42:433 days 1 hr ago0xf0f01e9464e740c08d55295c7090947f4f64ef6cOUT0xba818c3a8c961e22be7b399b14cd384c08dd94a90 AVAX0.002044343594 30.125456361
0xa3bcf7f82a41310dcf3183fd6ba733d1005cc8930d4667fa036cffbf83187be60x6549920d138405402022-09-23 12:09:593 days 18 hrs ago0xf0f01e9464e740c08d55295c7090947f4f64ef6cOUT0x2e1d0c56c6913fd6135f887080f7a14123a142a80 AVAX0.0167496175 27.5
0xf71e3e7353cea3ccf6cc06f3826dead720df5797bf7d8a383eb807a670a959f60x8a6655d6138405172022-09-23 12:09:133 days 18 hrs ago0xf0f01e9464e740c08d55295c7090947f4f64ef6cOUT0xba818c3a8c961e22be7b399b14cd384c08dd94a90 AVAX0.003227015 27.5
0xeda746e099f7e647b17fc5856fec2e156a1863e082390ad8814533faa9a495050xbef1e500138337262022-09-23 8:22:483 days 22 hrs ago0xf0f01e9464e740c08d55295c7090947f4f64ef6cOUT0x2e1d0c56c6913fd6135f887080f7a14123a142a80 AVAX0.00781935 27.5
0x169435a0881cf88d20cdad42f7bac1f894c82455e788fd7b84de5efd7c530d7bClaim Reward138288052022-09-23 5:38:384 days 1 hr ago0xf0f01e9464e740c08d55295c7090947f4f64ef6cOUT0x41102fb90121896e52868c0882dcbc74f9ca76060 AVAX0.002456175975 27.58043878
0x090703d634fead02aac750a7ca91ff72b16db929ec19b9fe6c2734d1147888980x6549920d137967162022-09-22 11:43:554 days 19 hrs ago0xf0f01e9464e740c08d55295c7090947f4f64ef6cOUT0x2e1d0c56c6913fd6135f887080f7a14123a142a80 AVAX0.017224285192 27.507582175
0xb54ea22c42bdf2411a02263b52a38e732b43baea15e695b6756b0ec8948bd44cApprove137967062022-09-22 11:43:354 days 19 hrs ago0xf0f01e9464e740c08d55295c7090947f4f64ef6cOUT0x0faf4bf0bf669cad5a3ce24839abc9d143d0cb7e0 AVAX0.001270627675 27.425
0x426326297335d3318c23e572cb9a7ded1b4a8994fe4a9151eed57e4c739ecd00Mint137966932022-09-22 11:43:104 days 19 hrs ago0xf0f01e9464e740c08d55295c7090947f4f64ef6cOUT0x0faf4bf0bf669cad5a3ce24839abc9d143d0cb7e0 AVAX0.001622779732 27.655675598
0x29c558c684dc8a0fca4ee802eecc779b79c46b02e56ca401538ca35e0ce30949Harvest137966752022-09-22 11:42:344 days 19 hrs ago0xf0f01e9464e740c08d55295c7090947f4f64ef6cOUT0x951accccfdf619d3cd8cfe0e4823d8e80354eb410 AVAX0.0027231325 27.5
0x91d251275edd7c5bfd30848277742ea43a87c573b2912f463662c2305d4fb82e0x4ea4c6b3137966512022-09-22 11:41:464 days 19 hrs ago0xf0f01e9464e740c08d55295c7090947f4f64ef6cOUT0x2e1d0c56c6913fd6135f887080f7a14123a142a80 AVAX0.007572455 27.5
0x5ac75fcc85874c6a75aa3752d9605b79962b1bb177a989cbf9924a42464ba1ef0x8a6655d6137966332022-09-22 11:41:104 days 19 hrs ago0xf0f01e9464e740c08d55295c7090947f4f64ef6cOUT0x41102fb90121896e52868c0882dcbc74f9ca76060 AVAX0.003360885 27.5
0x920062b0fee5aa812a1753da82add9b034f1352693deae67429197feb8b5eb2aClaim137966002022-09-22 11:40:044 days 19 hrs ago0xf0f01e9464e740c08d55295c7090947f4f64ef6cOUT0xba818c3a8c961e22be7b399b14cd384c08dd94a90 AVAX0.0018661775 27.5
[ Download CSV Export 
Parent Txn Hash Block From To Value
Loading

Contract Name:
0

Compiler Version
0

Optimization Enabled:
0

Other Settings:
-NA-
Block Transaction Gas Used Reward
Age Block Fee Address BC Fee Address Voting Power Jailed Incoming
Block Uncle Number Difficulty Gas Used Reward
Loading